sensor_id;sensor_type;location;lat;lon;timestamp;P1;durP1;ratioP1;P2;durP2;ratioP2
20318;SDS011;10317;47.254;11.314;2023-02-26T00:01:14;4.82;;;4.43;;
20318;SDS011;10317;47.254;11.314;2023-02-26T00:03:41;4.00;;;3.70;;
20318;SDS011;10317;47.254;11.314;2023-02-26T00:06:07;4.10;;;3.20;;
20318;SDS011;10317;47.254;11.314;2023-02-26T00:08:33;3.47;;;3.22;;
20318;SDS011;10317;47.254;11.314;2023-02-26T00:10:59;3.70;;;3.35;;
20318;SDS011;10317;47.254;11.314;2023-02-26T00:13:26;3.72;;;3.42;;
20318;SDS011;10317;47.254;11.314;2023-02-26T00:15:55;3.47;;;3.25;;
20318;SDS011;10317;47.254;11.314;2023-02-26T00:18:24;3.40;;;3.20;;
20318;SDS011;10317;47.254;11.314;2023-02-26T00:20:50;2.85;;;2.65;;
20318;SDS011;10317;47.254;11.314;2023-02-26T00:23:16;3.38;;;3.08;;
20318;SDS011;10317;47.254;11.314;2023-02-26T00:25:42;3.08;;;2.88;;
20318;SDS011;10317;47.254;11.314;2023-02-26T00:28:09;3.35;;;3.08;;
20318;SDS011;10317;47.254;11.314;2023-02-26T00:30:35;5.10;;;3.85;;
20318;SDS011;10317;47.254;11.314;2023-02-26T00:33:02;3.88;;;3.40;;
20318;SDS011;10317;47.254;11.314;2023-02-26T00:35:29;4.97;;;3.40;;
20318;SDS011;10317;47.254;11.314;2023-02-26T00:40:22;6.70;;;4.80;;
20318;SDS011;10317;47.254;11.314;2023-02-26T00:43:02;6.22;;;5.13;;
20318;SDS011;10317;47.254;11.314;2023-02-26T00:45:30;6.00;;;5.40;;
20318;SDS011;10317;47.254;11.314;2023-02-26T00:50:31;4.80;;;4.40;;
20318;SDS011;10317;47.254;11.314;2023-02-26T00:53:02;6.93;;;4.63;;
20318;SDS011;10317;47.254;11.314;2023-02-26T00:55:36;4.78;;;4.35;;
20318;SDS011;10317;47.254;11.314;2023-02-26T00:58:03;4.57;;;4.18;;
20318;SDS011;10317;47.254;11.314;2023-02-26T01:00:28;4.72;;;4.18;;
20318;SDS011;10317;47.254;11.314;2023-02-26T01:02:55;4.05;;;3.75;;
20318;SDS011;10317;47.254;11.314;2023-02-26T01:05:21;7.28;;;4.53;;
20318;SDS011;10317;47.254;11.314;2023-02-26T01:10:44;4.80;;;4.20;;
20318;SDS011;10317;47.254;11.314;2023-02-26T01:13:10;4.40;;;4.00;;
20318;SDS011;10317;47.254;11.314;2023-02-26T01:15:37;3.17;;;2.92;;
20318;SDS011;10317;47.254;11.314;2023-02-26T01:18:22;4.05;;;3.65;;
20318;SDS011;10317;47.254;11.314;2023-02-26T01:20:56;3.33;;;3.03;;
20318;SDS011;10317;47.254;11.314;2023-02-26T01:23:29;3.40;;;3.17;;
20318;SDS011;10317;47.254;11.314;2023-02-26T01:25:58;2.13;;;2.03;;
20318;SDS011;10317;47.254;11.314;2023-02-26T01:28:28;2.17;;;2.08;;
20318;SDS011;10317;47.254;11.314;2023-02-26T01:30:55;1.70;;;1.70;;
20318;SDS011;10317;47.254;11.314;2023-02-26T01:33:31;2.33;;;2.22;;
20318;SDS011;10317;47.254;11.314;2023-02-26T01:36:08;3.72;;;2.58;;
20318;SDS011;10317;47.254;11.314;2023-02-26T01:43:58;2.30;;;2.20;;
20318;SDS011;10317;47.254;11.314;2023-02-26T01:46:36;2.60;;;2.40;;
20318;SDS011;10317;47.254;11.314;2023-02-26T01:49:03;1.92;;;1.90;;
20318;SDS011;10317;47.254;11.314;2023-02-26T01:54:05;1.52;;;1.52;;
20318;SDS011;10317;47.254;11.314;2023-02-26T01:56:31;1.25;;;1.25;;
20318;SDS011;10317;47.254;11.314;2023-02-26T01:58:57;2.30;;;2.20;;
20318;SDS011;10317;47.254;11.314;2023-02-26T02:01:23;1.50;;;1.50;;
20318;SDS011;10317;47.254;11.314;2023-02-26T02:03:49;1.33;;;1.33;;
20318;SDS011;10317;47.254;11.314;2023-02-26T02:06:16;1.40;;;1.40;;
20318;SDS011;10317;47.254;11.314;2023-02-26T02:08:46;1.30;;;1.30;;
20318;SDS011;10317;47.254;11.314;2023-02-26T02:11:12;1.40;;;1.40;;
20318;SDS011;10317;47.254;11.314;2023-02-26T02:16:52;1.85;;;1.75;;
20318;SDS011;10317;47.254;11.314;2023-02-26T02:19:40;1.65;;;1.58;;
20318;SDS011;10317;47.254;11.314;2023-02-26T02:25:09;1.50;;;1.50;;
20318;SDS011;10317;47.254;11.314;2023-02-26T02:33:48;2.15;;;2.05;;
20318;SDS011;10317;47.254;11.314;2023-02-26T02:36:25;1.75;;;1.65;;
20318;SDS011;10317;47.254;11.314;2023-02-26T02:38:57;1.77;;;1.67;;
20318;SDS011;10317;47.254;11.314;2023-02-26T02:41:31;1.75;;;1.65;;
20318;SDS011;10317;47.254;11.314;2023-02-26T02:44:03;1.85;;;1.75;;
20318;SDS011;10317;47.254;11.314;2023-02-26T02:46:33;1.48;;;1.48;;
20318;SDS011;10317;47.254;11.314;2023-02-26T02:49:02;1.85;;;1.77;;
20318;SDS011;10317;47.254;11.314;2023-02-26T02:51:32;2.22;;;2.13;;
20318;SDS011;10317;47.254;11.314;2023-02-26T02:56:38;1.77;;;1.70;;
20318;SDS011;10317;47.254;11.314;2023-02-26T02:59:21;2.90;;;1.88;;
20318;SDS011;10317;47.254;11.314;2023-02-26T03:02:12;1.75;;;1.73;;
20318;SDS011;10317;47.254;11.314;2023-02-26T03:04:38;1.85;;;1.83;;
20318;SDS011;10317;47.254;11.314;2023-02-26T03:07:05;2.05;;;1.95;;
20318;SDS011;10317;47.254;11.314;2023-02-26T03:09:31;1.83;;;1.80;;
20318;SDS011;10317;47.254;11.314;2023-02-26T03:11:57;2.03;;;1.92;;
20318;SDS011;10317;47.254;11.314;2023-02-26T03:14:23;1.90;;;1.80;;
20318;SDS011;10317;47.254;11.314;2023-02-26T03:22:27;3.47;;;2.05;;
20318;SDS011;10317;47.254;11.314;2023-02-26T03:25:20;1.70;;;1.70;;
20318;SDS011;10317;47.254;11.314;2023-02-26T03:36:37;1.85;;;1.85;;
20318;SDS011;10317;47.254;11.314;2023-02-26T03:39:17;2.35;;;2.15;;
20318;SDS011;10317;47.254;11.314;2023-02-26T03:41:50;1.80;;;1.80;;
20318;SDS011;10317;47.254;11.314;2023-02-26T03:46:55;1.88;;;1.77;;
20318;SDS011;10317;47.254;11.314;2023-02-26T03:49:30;1.60;;;1.60;;
20318;SDS011;10317;47.254;11.314;2023-02-26T03:52:00;1.90;;;1.80;;
20318;SDS011;10317;47.254;11.314;2023-02-26T03:54:29;1.70;;;1.70;;
20318;SDS011;10317;47.254;11.314;2023-02-26T03:57:02;2.08;;;1.80;;
20318;SDS011;10317;47.254;11.314;2023-02-26T03:59:28;1.60;;;1.58;;
20318;SDS011;10317;47.254;11.314;2023-02-26T04:02:06;1.92;;;1.90;;
20318;SDS011;10317;47.254;11.314;2023-02-26T04:07:20;1.60;;;1.60;;
20318;SDS011;10317;47.254;11.314;2023-02-26T04:09:47;1.73;;;1.70;;
20318;SDS011;10317;47.254;11.314;2023-02-26T04:12:15;1.55;;;1.55;;
20318;SDS011;10317;47.254;11.314;2023-02-26T04:14:46;1.60;;;1.50;;
20318;SDS011;10317;47.254;11.314;2023-02-26T04:17:11;1.48;;;1.48;;
20318;SDS011;10317;47.254;11.314;2023-02-26T04:19:37;1.92;;;1.83;;
20318;SDS011;10317;47.254;11.314;2023-02-26T04:22:03;1.38;;;1.38;;
20318;SDS011;10317;47.254;11.314;2023-02-26T04:24:29;1.45;;;1.45;;
20318;SDS011;10317;47.254;11.314;2023-02-26T04:26:54;1.70;;;1.70;;
20318;SDS011;10317;47.254;11.314;2023-02-26T04:29:20;3.13;;;1.95;;
20318;SDS011;10317;47.254;11.314;2023-02-26T04:31:46;1.77;;;1.77;;
20318;SDS011;10317;47.254;11.314;2023-02-26T04:34:12;1.63;;;1.58;;
20318;SDS011;10317;47.254;11.314;2023-02-26T04:36:38;1.40;;;1.40;;
20318;SDS011;10317;47.254;11.314;2023-02-26T04:39:03;1.50;;;1.50;;
20318;SDS011;10317;47.254;11.314;2023-02-26T04:41:29;1.23;;;1.20;;
20318;SDS011;10317;47.254;11.314;2023-02-26T04:43:55;1.70;;;1.58;;
20318;SDS011;10317;47.254;11.314;2023-02-26T04:46:20;1.58;;;1.58;;
20318;SDS011;10317;47.254;11.314;2023-02-26T04:48:46;1.40;;;1.35;;
20318;SDS011;10317;47.254;11.314;2023-02-26T04:51:12;1.65;;;1.55;;
20318;SDS011;10317;47.254;11.314;2023-02-26T04:53:37;2.92;;;1.50;;
20318;SDS011;10317;47.254;11.314;2023-02-26T04:56:03;1.40;;;1.40;;
20318;SDS011;10317;47.254;11.314;2023-02-26T04:58:29;1.67;;;1.65;;
20318;SDS011;10317;47.254;11.314;2023-02-26T05:00:55;1.70;;;1.60;;
20318;SDS011;10317;47.254;11.314;2023-02-26T05:03:21;1.50;;;1.50;;
20318;SDS011;10317;47.254;11.314;2023-02-26T05:05:47;1.73;;;1.70;;
20318;SDS011;10317;47.254;11.314;2023-02-26T05:08:13;1.40;;;1.40;;
20318;SDS011;10317;47.254;11.314;2023-02-26T05:10:39;1.50;;;1.48;;
20318;SDS011;10317;47.254;11.314;2023-02-26T05:13:05;2.05;;;1.50;;
20318;SDS011;10317;47.254;11.314;2023-02-26T05:15:31;1.20;;;1.20;;
20318;SDS011;10317;47.254;11.314;2023-02-26T05:17:57;1.38;;;1.38;;
20318;SDS011;10317;47.254;11.314;2023-02-26T05:20:22;1.70;;;1.60;;
20318;SDS011;10317;47.254;11.314;2023-02-26T05:22:48;1.65;;;1.65;;
20318;SDS011;10317;47.254;11.314;2023-02-26T05:25:14;1.60;;;1.60;;
20318;SDS011;10317;47.254;11.314;2023-02-26T05:27:40;1.52;;;1.52;;
20318;SDS011;10317;47.254;11.314;2023-02-26T05:30:07;1.30;;;1.30;;
20318;SDS011;10317;47.254;11.314;2023-02-26T05:32:34;2.25;;;2.05;;
20318;SDS011;10317;47.254;11.314;2023-02-26T05:35:00;1.48;;;1.48;;
20318;SDS011;10317;47.254;11.314;2023-02-26T05:37:26;1.33;;;1.33;;
20318;SDS011;10317;47.254;11.314;2023-02-26T05:39:51;1.63;;;1.52;;
20318;SDS011;10317;47.254;11.314;2023-02-26T05:42:17;1.70;;;1.70;;
20318;SDS011;10317;47.254;11.314;2023-02-26T05:44:43;1.58;;;1.58;;
20318;SDS011;10317;47.254;11.314;2023-02-26T05:47:08;1.88;;;1.88;;
20318;SDS011;10317;47.254;11.314;2023-02-26T05:49:34;2.17;;;1.95;;
20318;SDS011;10317;47.254;11.314;2023-02-26T05:52:00;1.92;;;1.83;;
20318;SDS011;10317;47.254;11.314;2023-02-26T05:54:26;1.80;;;1.70;;
20318;SDS011;10317;47.254;11.314;2023-02-26T05:56:51;1.83;;;1.73;;
20318;SDS011;10317;47.254;11.314;2023-02-26T05:59:17;1.70;;;1.60;;
20318;SDS011;10317;47.254;11.314;2023-02-26T06:01:43;1.60;;;1.60;;
20318;SDS011;10317;47.254;11.314;2023-02-26T06:04:09;1.85;;;1.80;;
20318;SDS011;10317;47.254;11.314;2023-02-26T06:06:34;2.00;;;1.90;;
20318;SDS011;10317;47.254;11.314;2023-02-26T06:09:00;1.75;;;1.70;;
20318;SDS011;10317;47.254;11.314;2023-02-26T06:11:27;2.00;;;2.00;;
20318;SDS011;10317;47.254;11.314;2023-02-26T06:13:53;1.95;;;1.85;;
20318;SDS011;10317;47.254;11.314;2023-02-26T06:16:19;2.03;;;1.92;;
20318;SDS011;10317;47.254;11.314;2023-02-26T06:18:45;1.75;;;1.75;;
20318;SDS011;10317;47.254;11.314;2023-02-26T06:21:11;1.75;;;1.75;;
20318;SDS011;10317;47.254;11.314;2023-02-26T06:23:37;2.30;;;2.20;;
20318;SDS011;10317;47.254;11.314;2023-02-26T06:26:03;2.08;;;2.08;;
20318;SDS011;10317;47.254;11.314;2023-02-26T06:28:29;1.98;;;1.90;;
20318;SDS011;10317;47.254;11.314;2023-02-26T06:30:55;1.90;;;1.90;;
20318;SDS011;10317;47.254;11.314;2023-02-26T06:33:21;1.90;;;1.90;;
20318;SDS011;10317;47.254;11.314;2023-02-26T06:35:46;2.17;;;2.08;;
20318;SDS011;10317;47.254;11.314;2023-02-26T06:38:12;2.00;;;1.90;;
20318;SDS011;10317;47.254;11.314;2023-02-26T06:40:38;1.90;;;1.90;;
20318;SDS011;10317;47.254;11.314;2023-02-26T06:43:04;2.28;;;2.17;;
20318;SDS011;10317;47.254;11.314;2023-02-26T06:45:29;2.22;;;2.13;;
20318;SDS011;10317;47.254;11.314;2023-02-26T06:47:55;1.90;;;1.90;;
20318;SDS011;10317;47.254;11.314;2023-02-26T06:50:21;2.10;;;2.00;;
20318;SDS011;10317;47.254;11.314;2023-02-26T06:52:47;2.25;;;2.15;;
20318;SDS011;10317;47.254;11.314;2023-02-26T06:55:12;2.20;;;2.10;;
20318;SDS011;10317;47.254;11.314;2023-02-26T06:57:38;2.13;;;2.03;;
20318;SDS011;10317;47.254;11.314;2023-02-26T07:00:04;2.00;;;2.00;;
20318;SDS011;10317;47.254;11.314;2023-02-26T07:02:31;2.40;;;2.30;;
20318;SDS011;10317;47.254;11.314;2023-02-26T07:04:57;2.58;;;2.45;;
20318;SDS011;10317;47.254;11.314;2023-02-26T07:07:22;2.90;;;2.70;;
20318;SDS011;10317;47.254;11.314;2023-02-26T07:09:48;2.00;;;2.00;;
20318;SDS011;10317;47.254;11.314;2023-02-26T07:12:14;2.47;;;2.38;;
20318;SDS011;10317;47.254;11.314;2023-02-26T07:14:39;2.47;;;2.10;;
20318;SDS011;10317;47.254;11.314;2023-02-26T07:17:07;3.17;;;2.33;;
20318;SDS011;10317;47.254;11.314;2023-02-26T07:19:33;2.40;;;2.20;;
20318;SDS011;10317;47.254;11.314;2023-02-26T07:21:59;2.30;;;2.20;;
20318;SDS011;10317;47.254;11.314;2023-02-26T07:24:24;2.17;;;2.08;;
20318;SDS011;10317;47.254;11.314;2023-02-26T07:26:50;2.22;;;2.13;;
20318;SDS011;10317;47.254;11.314;2023-02-26T07:29:16;3.42;;;2.22;;
20318;SDS011;10317;47.254;11.314;2023-02-26T07:31:41;2.20;;;2.10;;
20318;SDS011;10317;47.254;11.314;2023-02-26T07:34:07;1.80;;;1.80;;
20318;SDS011;10317;47.254;11.314;2023-02-26T07:36:33;1.88;;;1.88;;
20318;SDS011;10317;47.254;11.314;2023-02-26T07:38:59;2.03;;;1.92;;
20318;SDS011;10317;47.254;11.314;2023-02-26T07:41:24;2.30;;;2.20;;
20318;SDS011;10317;47.254;11.314;2023-02-26T07:43:50;3.60;;;2.28;;
20318;SDS011;10317;47.254;11.314;2023-02-26T07:46:15;2.05;;;1.95;;
20318;SDS011;10317;47.254;11.314;2023-02-26T07:48:41;2.40;;;2.30;;
20318;SDS011;10317;47.254;11.314;2023-02-26T07:51:07;2.67;;;2.47;;
20318;SDS011;10317;47.254;11.314;2023-02-26T07:53:35;3.55;;;2.80;;
20318;SDS011;10317;47.254;11.314;2023-02-26T07:56:01;3.90;;;2.75;;
20318;SDS011;10317;47.254;11.314;2023-02-26T07:58:27;2.35;;;2.25;;
20318;SDS011;10317;47.254;11.314;2023-02-26T08:00:53;2.55;;;2.45;;
20318;SDS011;10317;47.254;11.314;2023-02-26T08:03:19;3.13;;;2.85;;
20318;SDS011;10317;47.254;11.314;2023-02-26T08:05:45;2.67;;;2.53;;
20318;SDS011;10317;47.254;11.314;2023-02-26T08:08:11;2.97;;;2.80;;
20318;SDS011;10317;47.254;11.314;2023-02-26T08:10:37;2.60;;;2.50;;
20318;SDS011;10317;47.254;11.314;2023-02-26T08:13:05;3.40;;;3.10;;
20318;SDS011;10317;47.254;11.314;2023-02-26T08:15:31;3.08;;;2.88;;
20318;SDS011;10317;47.254;11.314;2023-02-26T08:17:57;2.78;;;2.22;;
20318;SDS011;10317;47.254;11.314;2023-02-26T08:20:23;2.20;;;2.10;;
20318;SDS011;10317;47.254;11.314;2023-02-26T08:22:51;2.28;;;2.17;;
20318;SDS011;10317;47.254;11.314;2023-02-26T08:25:17;2.70;;;2.50;;
20318;SDS011;10317;47.254;11.314;2023-02-26T08:27:43;2.75;;;2.65;;
20318;SDS011;10317;47.254;11.314;2023-02-26T08:30:09;2.50;;;2.40;;
20318;SDS011;10317;47.254;11.314;2023-02-26T08:32:35;2.90;;;2.70;;
20318;SDS011;10317;47.254;11.314;2023-02-26T08:35:03;3.38;;;2.30;;
20318;SDS011;10317;47.254;11.314;2023-02-26T08:37:30;3.42;;;2.38;;
20318;SDS011;10317;47.254;11.314;2023-02-26T08:39:55;3.92;;;2.60;;
20318;SDS011;10317;47.254;11.314;2023-02-26T08:42:21;2.50;;;2.33;;
20318;SDS011;10317;47.254;11.314;2023-02-26T08:44:47;2.83;;;2.63;;
20318;SDS011;10317;47.254;11.314;2023-02-26T08:47:12;3.03;;;2.72;;
20318;SDS011;10317;47.254;11.314;2023-02-26T08:49:38;2.40;;;2.30;;
20318;SDS011;10317;47.254;11.314;2023-02-26T08:52:04;3.13;;;2.60;;
20318;SDS011;10317;47.254;11.314;2023-02-26T08:54:30;2.92;;;2.72;;
20318;SDS011;10317;47.254;11.314;2023-02-26T08:56:56;3.15;;;2.95;;
20318;SDS011;10317;47.254;11.314;2023-02-26T08:59:23;5.32;;;2.70;;
20318;SDS011;10317;47.254;11.314;2023-02-26T09:01:49;2.78;;;2.65;;
20318;SDS011;10317;47.254;11.314;2023-02-26T09:04:15;3.67;;;3.20;;
20318;SDS011;10317;47.254;11.314;2023-02-26T09:06:41;3.20;;;2.83;;
20318;SDS011;10317;47.254;11.314;2023-02-26T09:09:07;2.85;;;2.65;;
20318;SDS011;10317;47.254;11.314;2023-02-26T09:11:32;2.70;;;2.50;;
20318;SDS011;10317;47.254;11.314;2023-02-26T09:13:58;3.25;;;2.17;;
20318;SDS011;10317;47.254;11.314;2023-02-26T09:16:26;3.08;;;2.20;;
20318;SDS011;10317;47.254;11.314;2023-02-26T09:18:51;2.65;;;2.20;;
20318;SDS011;10317;47.254;11.314;2023-02-26T09:21:17;2.58;;;2.38;;
20318;SDS011;10317;47.254;11.314;2023-02-26T09:23:43;2.28;;;2.17;;
20318;SDS011;10317;47.254;11.314;2023-02-26T09:26:09;2.40;;;2.30;;
20318;SDS011;10317;47.254;11.314;2023-02-26T09:28:34;2.40;;;2.28;;
20318;SDS011;10317;47.254;11.314;2023-02-26T09:31:00;2.65;;;2.45;;
20318;SDS011;10317;47.254;11.314;2023-02-26T09:33:26;2.30;;;2.20;;
20318;SDS011;10317;47.254;11.314;2023-02-26T09:35:51;3.05;;;2.85;;
20318;SDS011;10317;47.254;11.314;2023-02-26T09:38:18;2.22;;;2.03;;
20318;SDS011;10317;47.254;11.314;2023-02-26T09:40:53;2.10;;;2.00;;
20318;SDS011;10317;47.254;11.314;2023-02-26T09:46:06;2.42;;;2.22;;
20318;SDS011;10317;47.254;11.314;2023-02-26T09:48:50;2.20;;;2.10;;
20318;SDS011;10317;47.254;11.314;2023-02-26T09:51:21;2.00;;;2.00;;
20318;SDS011;10317;47.254;11.314;2023-02-26T09:53:47;2.50;;;2.35;;
20318;SDS011;10317;47.254;11.314;2023-02-26T09:56:16;2.20;;;2.10;;
20318;SDS011;10317;47.254;11.314;2023-02-26T09:58:44;2.38;;;2.20;;
20318;SDS011;10317;47.254;11.314;2023-02-26T10:04:09;2.10;;;2.00;;
20318;SDS011;10317;47.254;11.314;2023-02-26T10:06:54;2.30;;;2.20;;
20318;SDS011;10317;47.254;11.314;2023-02-26T10:09:51;2.10;;;2.10;;
20318;SDS011;10317;47.254;11.314;2023-02-26T10:12:27;2.70;;;2.42;;
20318;SDS011;10317;47.254;11.314;2023-02-26T10:23:00;2.47;;;2.30;;
20318;SDS011;10317;47.254;11.314;2023-02-26T10:25:43;2.63;;;2.20;;
20318;SDS011;10317;47.254;11.314;2023-02-26T10:31:02;2.42;;;2.33;;
20318;SDS011;10317;47.254;11.314;2023-02-26T10:33:43;2.30;;;2.20;;
20318;SDS011;10317;47.254;11.314;2023-02-26T10:39:02;2.40;;;2.30;;
20318;SDS011;10317;47.254;11.314;2023-02-26T10:41:39;2.30;;;2.20;;
20318;SDS011;10317;47.254;11.314;2023-02-26T10:44:15;2.40;;;2.17;;
20318;SDS011;10317;47.254;11.314;2023-02-26T10:51:53;2.90;;;2.70;;
20318;SDS011;10317;47.254;11.314;2023-02-26T10:56:59;3.40;;;2.28;;
20318;SDS011;10317;47.254;11.314;2023-02-26T10:59:26;2.65;;;2.45;;
20318;SDS011;10317;47.254;11.314;2023-02-26T11:01:52;3.10;;;2.22;;
20318;SDS011;10317;47.254;11.314;2023-02-26T11:04:23;2.97;;;2.78;;
20318;SDS011;10317;47.254;11.314;2023-02-26T11:06:52;2.42;;;2.33;;
20318;SDS011;10317;47.254;11.314;2023-02-26T11:09:24;2.20;;;2.10;;
20318;SDS011;10317;47.254;11.314;2023-02-26T11:12:05;2.65;;;2.40;;
20318;SDS011;10317;47.254;11.314;2023-02-26T11:14:38;2.90;;;2.70;;
20318;SDS011;10317;47.254;11.314;2023-02-26T11:17:13;2.63;;;2.47;;
20318;SDS011;10317;47.254;11.314;2023-02-26T11:19:51;2.58;;;2.38;;
20318;SDS011;10317;47.254;11.314;2023-02-26T11:22:26;2.67;;;2.58;;
20318;SDS011;10317;47.254;11.314;2023-02-26T11:24:56;2.78;;;2.58;;
20318;SDS011;10317;47.254;11.314;2023-02-26T11:27:25;2.40;;;2.20;;
20318;SDS011;10317;47.254;11.314;2023-02-26T11:29:56;3.38;;;2.95;;
20318;SDS011;10317;47.254;11.314;2023-02-26T11:32:35;2.55;;;2.45;;
20318;SDS011;10317;47.254;11.314;2023-02-26T11:35:02;3.05;;;2.85;;
20318;SDS011;10317;47.254;11.314;2023-02-26T11:37:35;3.10;;;2.83;;
20318;SDS011;10317;47.254;11.314;2023-02-26T11:40:05;3.40;;;3.13;;
20318;SDS011;10317;47.254;11.314;2023-02-26T11:42:40;3.13;;;2.92;;
20318;SDS011;10317;47.254;11.314;2023-02-26T11:45:19;2.50;;;2.40;;
20318;SDS011;10317;47.254;11.314;2023-02-26T11:47:47;2.95;;;2.72;;
20318;SDS011;10317;47.254;11.314;2023-02-26T11:50:23;3.03;;;2.83;;
20318;SDS011;10317;47.254;11.314;2023-02-26T11:52:56;3.47;;;2.40;;
20318;SDS011;10317;47.254;11.314;2023-02-26T11:55:35;2.45;;;2.30;;
20318;SDS011;10317;47.254;11.314;2023-02-26T11:58:04;2.67;;;2.58;;
20318;SDS011;10317;47.254;11.314;2023-02-26T12:00:52;2.72;;;2.58;;
20318;SDS011;10317;47.254;11.314;2023-02-26T12:03:20;3.00;;;2.63;;
20318;SDS011;10317;47.254;11.314;2023-02-26T12:05:47;2.85;;;2.65;;
20318;SDS011;10317;47.254;11.314;2023-02-26T12:19:58;3.00;;;2.72;;
20318;SDS011;10317;47.254;11.314;2023-02-26T12:25:15;2.72;;;2.63;;
20318;SDS011;10317;47.254;11.314;2023-02-26T12:38:48;4.60;;;3.00;;
20318;SDS011;10317;47.254;11.314;2023-02-26T12:44:13;2.80;;;2.60;;
20318;SDS011;10317;47.254;11.314;2023-02-26T12:53:03;2.47;;;2.20;;
20318;SDS011;10317;47.254;11.314;2023-02-26T13:06:01;2.92;;;2.72;;
20318;SDS011;10317;47.254;11.314;2023-02-26T13:19:57;2.40;;;2.30;;
20318;SDS011;10317;47.254;11.314;2023-02-26T13:22:40;4.82;;;2.90;;
20318;SDS011;10317;47.254;11.314;2023-02-26T13:27:54;2.15;;;2.05;;
20318;SDS011;10317;47.254;11.314;2023-02-26T13:30:24;2.10;;;2.00;;
20318;SDS011;10317;47.254;11.314;2023-02-26T13:33:00;2.15;;;2.05;;
20318;SDS011;10317;47.254;11.314;2023-02-26T13:35:34;3.28;;;2.38;;
20318;SDS011;10317;47.254;11.314;2023-02-26T13:38:09;1.85;;;1.80;;
20318;SDS011;10317;47.254;11.314;2023-02-26T13:41:02;2.15;;;2.00;;
20318;SDS011;10317;47.254;11.314;2023-02-26T13:49:19;3.03;;;2.00;;
20318;SDS011;10317;47.254;11.314;2023-02-26T13:51:55;2.40;;;2.20;;
20318;SDS011;10317;47.254;11.314;2023-02-26T13:57:14;2.28;;;2.17;;
20318;SDS011;10317;47.254;11.314;2023-02-26T14:02:56;1.80;;;1.80;;
20318;SDS011;10317;47.254;11.314;2023-02-26T14:10:50;2.63;;;2.22;;
20318;SDS011;10317;47.254;11.314;2023-02-26T14:13:29;2.63;;;2.38;;
20318;SDS011;10317;47.254;11.314;2023-02-26T14:18:52;2.38;;;2.28;;
20318;SDS011;10317;47.254;11.314;2023-02-26T14:21:54;2.80;;;2.67;;
20318;SDS011;10317;47.254;11.314;2023-02-26T14:24:38;2.50;;;2.30;;
20318;SDS011;10317;47.254;11.314;2023-02-26T14:34:36;2.92;;;2.67;;
20318;SDS011;10317;47.254;11.314;2023-02-26T14:37:13;2.50;;;2.38;;
20318;SDS011;10317;47.254;11.314;2023-02-26T14:39:42;3.10;;;2.95;;
20318;SDS011;10317;47.254;11.314;2023-02-26T14:42:22;4.28;;;2.50;;
20318;SDS011;10317;47.254;11.314;2023-02-26T14:45:52;2.47;;;2.38;;
20318;SDS011;10317;47.254;11.314;2023-02-26T14:47:52;2.65;;;2.55;;
20318;SDS011;10317;47.254;11.314;2023-02-26T14:50:19;2.83;;;2.55;;
20318;SDS011;10317;47.254;11.314;2023-02-26T14:55:43;3.00;;;2.80;;
20318;SDS011;10317;47.254;11.314;2023-02-26T14:58:25;2.72;;;2.53;;
20318;SDS011;10317;47.254;11.314;2023-02-26T15:14:02;3.72;;;3.28;;
20318;SDS011;10317;47.254;11.314;2023-02-26T15:17:13;3.17;;;2.97;;
20318;SDS011;10317;47.254;11.314;2023-02-26T15:27:55;2.83;;;2.63;;
20318;SDS011;10317;47.254;11.314;2023-02-26T15:30:21;3.83;;;3.50;;
20318;SDS011;10317;47.254;11.314;2023-02-26T15:32:48;4.18;;;3.80;;
20318;SDS011;10317;47.254;11.314;2023-02-26T15:35:22;3.95;;;3.65;;
20318;SDS011;10317;47.254;11.314;2023-02-26T15:37:58;3.80;;;3.50;;
20318;SDS011;10317;47.254;11.314;2023-02-26T15:40:27;3.53;;;3.22;;
20318;SDS011;10317;47.254;11.314;2023-02-26T15:43:02;4.20;;;3.90;;
20318;SDS011;10317;47.254;11.314;2023-02-26T15:48:42;4.47;;;4.18;;
20318;SDS011;10317;47.254;11.314;2023-02-26T15:50:52;4.45;;;4.15;;
20318;SDS011;10317;47.254;11.314;2023-02-26T15:53:29;3.72;;;3.53;;
20318;SDS011;10317;47.254;11.314;2023-02-26T15:55:58;5.25;;;3.75;;
20318;SDS011;10317;47.254;11.314;2023-02-26T15:58:35;3.72;;;3.42;;
20318;SDS011;10317;47.254;11.314;2023-02-26T16:01:03;4.10;;;3.80;;
20318;SDS011;10317;47.254;11.314;2023-02-26T16:03:30;4.20;;;3.80;;
20318;SDS011;10317;47.254;11.314;2023-02-26T16:06:01;4.63;;;4.22;;
20318;SDS011;10317;47.254;11.314;2023-02-26T16:08:27;4.40;;;4.10;;
20318;SDS011;10317;47.254;11.314;2023-02-26T16:10:55;4.55;;;4.25;;
20318;SDS011;10317;47.254;11.314;2023-02-26T16:13:28;5.40;;;4.18;;
20318;SDS011;10317;47.254;11.314;2023-02-26T16:16:03;5.47;;;4.38;;
20318;SDS011;10317;47.254;11.314;2023-02-26T16:18:33;4.00;;;3.70;;
20318;SDS011;10317;47.254;11.314;2023-02-26T16:21:01;4.40;;;4.05;;
20318;SDS011;10317;47.254;11.314;2023-02-26T16:26:05;4.65;;;4.28;;
20318;SDS011;10317;47.254;11.314;2023-02-26T16:28:41;4.78;;;4.38;;
20318;SDS011;10317;47.254;11.314;2023-02-26T16:31:15;4.50;;;4.10;;
20318;SDS011;10317;47.254;11.314;2023-02-26T16:33:48;4.00;;;3.70;;
20318;SDS011;10317;47.254;11.314;2023-02-26T16:36:24;4.00;;;3.70;;
20318;SDS011;10317;47.254;11.314;2023-02-26T16:39:29;4.47;;;4.07;;
20318;SDS011;10317;47.254;11.314;2023-02-26T16:41:59;4.93;;;3.83;;
20318;SDS011;10317;47.254;11.314;2023-02-26T16:44:43;4.05;;;3.75;;
20318;SDS011;10317;47.254;11.314;2023-02-26T16:47:23;3.88;;;3.60;;
20318;SDS011;10317;47.254;11.314;2023-02-26T16:49:50;4.07;;;3.78;;
20318;SDS011;10317;47.254;11.314;2023-02-26T16:52:27;3.88;;;3.63;;
20318;SDS011;10317;47.254;11.314;2023-02-26T16:54:55;3.40;;;3.20;;
20318;SDS011;10317;47.254;11.314;2023-02-26T16:57:26;3.90;;;3.70;;
20318;SDS011;10317;47.254;11.314;2023-02-26T17:00:00;3.70;;;3.50;;
20318;SDS011;10317;47.254;11.314;2023-02-26T17:02:33;3.95;;;3.63;;
20318;SDS011;10317;47.254;11.314;2023-02-26T17:05:04;3.50;;;3.28;;
20318;SDS011;10317;47.254;11.314;2023-02-26T17:08:20;3.22;;;3.00;;
20318;SDS011;10317;47.254;11.314;2023-02-26T17:10:53;3.33;;;3.13;;
20318;SDS011;10317;47.254;11.314;2023-02-26T17:13:33;3.28;;;3.08;;
20318;SDS011;10317;47.254;11.314;2023-02-26T17:16:02;4.75;;;3.35;;
20318;SDS011;10317;47.254;11.314;2023-02-26T17:18:30;3.90;;;3.58;;
20318;SDS011;10317;47.254;11.314;2023-02-26T17:20:56;3.45;;;3.15;;
20318;SDS011;10317;47.254;11.314;2023-02-26T17:23:23;4.10;;;3.10;;
20318;SDS011;10317;47.254;11.314;2023-02-26T17:25:53;3.60;;;3.30;;
20318;SDS011;10317;47.254;11.314;2023-02-26T17:28:24;4.68;;;3.63;;
20318;SDS011;10317;47.254;11.314;2023-02-26T17:30:52;4.45;;;3.28;;
20318;SDS011;10317;47.254;11.314;2023-02-26T17:33:20;3.78;;;3.58;;
20318;SDS011;10317;47.254;11.314;2023-02-26T17:35:46;4.40;;;4.10;;
20318;SDS011;10317;47.254;11.314;2023-02-26T17:38:13;4.18;;;3.72;;
20318;SDS011;10317;47.254;11.314;2023-02-26T17:40:41;4.03;;;3.72;;
20318;SDS011;10317;47.254;11.314;2023-02-26T17:43:08;4.53;;;4.10;;
20318;SDS011;10317;47.254;11.314;2023-02-26T17:45:34;4.10;;;3.80;;
20318;SDS011;10317;47.254;11.314;2023-02-26T17:48:02;3.72;;;3.50;;
20318;SDS011;10317;47.254;11.314;2023-02-26T17:50:31;5.65;;;4.35;;
20318;SDS011;10317;47.254;11.314;2023-02-26T17:53:08;4.13;;;3.75;;
20318;SDS011;10317;47.254;11.314;2023-02-26T17:55:35;4.25;;;3.92;;
20318;SDS011;10317;47.254;11.314;2023-02-26T17:58:03;3.40;;;3.20;;
20318;SDS011;10317;47.254;11.314;2023-02-26T18:00:37;3.08;;;2.97;;
20318;SDS011;10317;47.254;11.314;2023-02-26T18:03:06;3.97;;;3.65;;